Blooming Grove, Texas
Current Conditions -  °F | °C
As of 11:03 AM on Saturday 20 Dec 2014 (Local Time) from KCRS Reporting Station
Overcast Overcast  
Wind Chill: 50°   Ceiling: 1000
Heat Index: 50°   Visibility: 8mi
Dew Point: 44°   Wind: 7mph
Humidity: 80%   Direction: 20°NNE
Pressure: 30.26"   Gusts: NA
Location:  32.09°N, 96.72°W
Report Text: KCRS 201703Z AUTO 02006KT 8SM OVC010 10/07 A3026 RMK AO2 T01000067
Loading
Personal Weather Stations






























Interactive Weather Map New forecast layout! Learn more

10-Day Weather Forecast

Advertisements
Track Severe Weather on mobile